CYFO

Flin Flon Airport

Flin Flon, Manitoba, Canada
METAR CYFO 222000Z 35011KT 300V010 15SM FEW200 01/M07 A3028 RMK CI1 CI TR SLP272
Observed Flight Rules
Oct-22 @ 20:00 UTC (52 minutes ago) Visual Flight Rules
Wind Visibility Clouds
350° at 11 knots 15 miles
  • Few at 20,000' AGL
Temperatures Readings
Current 1°C / 34°F
Dewpoint -7°C / 19°F
Humidity 56%
Altimeter 30.28" Hg
Pressure 1027.2 hPa
Elevation 304
METAR CYFO 222000Z 35011KT 300V010 15SM FEW200 01/M07 A3028 RMK CI1 CI TR SLP272
Observed Flight Rules
Oct-22 @ 20:00 UTC
(52 minutes ago)
VFR
Wind Visibility
350° at 11 knots 15 miles
Clouds
  • Few at 20,000' AGL
Temperature Dewpoint
1°C / 34°F -7°C / 19°F
Humidity Altimeter Pressure
56% 30.28" Hg 1027.2 hPa